sensor_id;sensor_type;location;lat;lon;timestamp;P1;durP1;ratioP1;P2;durP2;ratioP2
22973;SDS011;11653;50.848;4.584;2023-12-20T00:02:23;15.40;;;3.23;;
22973;SDS011;11653;50.848;4.584;2023-12-20T00:04:49;13.73;;;3.37;;
22973;SDS011;11653;50.848;4.584;2023-12-20T00:07:15;18.37;;;3.50;;
22973;SDS011;11653;50.848;4.584;2023-12-20T00:09:41;14.93;;;3.70;;
22973;SDS011;11653;50.848;4.584;2023-12-20T00:12:06;10.93;;;2.70;;
22973;SDS011;11653;50.848;4.584;2023-12-20T00:14:32;10.77;;;3.83;;
22973;SDS011;11653;50.848;4.584;2023-12-20T00:16:58;16.13;;;2.80;;
22973;SDS011;11653;50.848;4.584;2023-12-20T00:19:23;10.87;;;3.40;;
22973;SDS011;11653;50.848;4.584;2023-12-20T00:21:49;11.60;;;3.40;;
22973;SDS011;11653;50.848;4.584;2023-12-20T00:24:15;14.70;;;3.47;;
22973;SDS011;11653;50.848;4.584;2023-12-20T00:26:41;8.93;;;2.57;;
22973;SDS011;11653;50.848;4.584;2023-12-20T00:29:07;9.90;;;4.00;;
22973;SDS011;11653;50.848;4.584;2023-12-20T00:31:33;10.03;;;2.63;;
22973;SDS011;11653;50.848;4.584;2023-12-20T00:33:58;16.73;;;3.00;;
22973;SDS011;11653;50.848;4.584;2023-12-20T00:36:24;12.73;;;2.57;;
22973;SDS011;11653;50.848;4.584;2023-12-20T00:38:50;16.13;;;2.43;;
22973;SDS011;11653;50.848;4.584;2023-12-20T00:41:16;11.93;;;2.40;;
22973;SDS011;11653;50.848;4.584;2023-12-20T00:43:42;13.47;;;2.73;;
22973;SDS011;11653;50.848;4.584;2023-12-20T00:46:07;8.23;;;2.80;;
22973;SDS011;11653;50.848;4.584;2023-12-20T00:48:33;13.83;;;3.37;;
22973;SDS011;11653;50.848;4.584;2023-12-20T00:50:59;12.70;;;2.73;;
22973;SDS011;11653;50.848;4.584;2023-12-20T00:53:24;16.00;;;2.87;;
22973;SDS011;11653;50.848;4.584;2023-12-20T00:55:50;10.23;;;2.53;;
22973;SDS011;11653;50.848;4.584;2023-12-20T00:58:16;14.40;;;3.37;;
22973;SDS011;11653;50.848;4.584;2023-12-20T01:00:42;7.43;;;2.90;;
22973;SDS011;11653;50.848;4.584;2023-12-20T01:03:08;10.60;;;2.57;;
22973;SDS011;11653;50.848;4.584;2023-12-20T01:05:34;9.70;;;2.67;;
22973;SDS011;11653;50.848;4.584;2023-12-20T01:08:00;17.10;;;3.57;;
22973;SDS011;11653;50.848;4.584;2023-12-20T01:10:28;6.57;;;2.67;;
22973;SDS011;11653;50.848;4.584;2023-12-20T01:12:54;12.60;;;2.73;;
22973;SDS011;11653;50.848;4.584;2023-12-20T01:15:20;11.40;;;3.10;;
22973;SDS011;11653;50.848;4.584;2023-12-20T01:17:46;16.97;;;3.07;;
22973;SDS011;11653;50.848;4.584;2023-12-20T01:20:14;8.40;;;2.83;;
22973;SDS011;11653;50.848;4.584;2023-12-20T01:22:40;10.37;;;2.70;;
22973;SDS011;11653;50.848;4.584;2023-12-20T01:25:07;10.40;;;2.90;;
22973;SDS011;11653;50.848;4.584;2023-12-20T01:27:33;11.63;;;3.03;;
22973;SDS011;11653;50.848;4.584;2023-12-20T01:29:59;18.43;;;3.23;;
22973;SDS011;11653;50.848;4.584;2023-12-20T01:32:25;16.90;;;3.40;;
22973;SDS011;11653;50.848;4.584;2023-12-20T01:34:51;19.77;;;4.30;;
22973;SDS011;11653;50.848;4.584;2023-12-20T01:37:16;13.47;;;3.97;;
22973;SDS011;11653;50.848;4.584;2023-12-20T01:39:42;13.50;;;3.90;;
22973;SDS011;11653;50.848;4.584;2023-12-20T01:42:08;13.50;;;3.70;;
22973;SDS011;11653;50.848;4.584;2023-12-20T01:44:33;14.10;;;3.63;;
22973;SDS011;11653;50.848;4.584;2023-12-20T01:46:59;12.50;;;3.70;;
22973;SDS011;11653;50.848;4.584;2023-12-20T01:49:25;13.67;;;3.87;;
22973;SDS011;11653;50.848;4.584;2023-12-20T01:51:51;15.17;;;4.03;;
22973;SDS011;11653;50.848;4.584;2023-12-20T01:54:17;17.40;;;3.73;;
22973;SDS011;11653;50.848;4.584;2023-12-20T01:56:45;13.57;;;4.43;;
22973;SDS011;11653;50.848;4.584;2023-12-20T01:59:11;16.77;;;3.90;;
22973;SDS011;11653;50.848;4.584;2023-12-20T02:01:38;15.23;;;4.20;;
22973;SDS011;11653;50.848;4.584;2023-12-20T02:04:03;11.73;;;3.60;;
22973;SDS011;11653;50.848;4.584;2023-12-20T02:06:30;13.93;;;3.97;;
22973;SDS011;11653;50.848;4.584;2023-12-20T02:08:58;18.57;;;4.50;;
22973;SDS011;11653;50.848;4.584;2023-12-20T02:11:25;16.40;;;4.50;;
22973;SDS011;11653;50.848;4.584;2023-12-20T02:13:51;16.10;;;4.10;;
22973;SDS011;11653;50.848;4.584;2023-12-20T02:16:18;21.00;;;3.53;;
22973;SDS011;11653;50.848;4.584;2023-12-20T02:18:44;15.13;;;3.50;;
22973;SDS011;11653;50.848;4.584;2023-12-20T02:21:10;15.10;;;3.67;;
22973;SDS011;11653;50.848;4.584;2023-12-20T02:23:35;10.33;;;4.20;;
22973;SDS011;11653;50.848;4.584;2023-12-20T02:26:02;13.10;;;3.90;;
22973;SDS011;11653;50.848;4.584;2023-12-20T02:28:28;14.97;;;4.60;;
22973;SDS011;11653;50.848;4.584;2023-12-20T02:30:54;18.97;;;4.07;;
22973;SDS011;11653;50.848;4.584;2023-12-20T02:33:20;10.40;;;4.07;;
22973;SDS011;11653;50.848;4.584;2023-12-20T02:35:45;19.13;;;3.93;;
22973;SDS011;11653;50.848;4.584;2023-12-20T02:38:12;22.07;;;4.20;;
22973;SDS011;11653;50.848;4.584;2023-12-20T02:40:38;19.03;;;4.00;;
22973;SDS011;11653;50.848;4.584;2023-12-20T02:43:04;17.30;;;4.20;;
22973;SDS011;11653;50.848;4.584;2023-12-20T02:45:29;18.07;;;3.80;;
22973;SDS011;11653;50.848;4.584;2023-12-20T02:47:55;14.27;;;3.73;;
22973;SDS011;11653;50.848;4.584;2023-12-20T02:50:21;15.60;;;4.20;;
22973;SDS011;11653;50.848;4.584;2023-12-20T02:52:47;14.80;;;3.67;;
22973;SDS011;11653;50.848;4.584;2023-12-20T02:55:12;18.83;;;5.10;;
22973;SDS011;11653;50.848;4.584;2023-12-20T02:57:38;14.40;;;4.23;;
22973;SDS011;11653;50.848;4.584;2023-12-20T03:00:08;9.13;;;3.70;;
22973;SDS011;11653;50.848;4.584;2023-12-20T03:02:34;18.97;;;4.33;;
22973;SDS011;11653;50.848;4.584;2023-12-20T03:05:01;18.33;;;5.17;;
22973;SDS011;11653;50.848;4.584;2023-12-20T03:07:27;17.73;;;4.80;;
22973;SDS011;11653;50.848;4.584;2023-12-20T03:09:53;13.13;;;4.40;;
22973;SDS011;11653;50.848;4.584;2023-12-20T03:12:19;11.17;;;4.37;;
22973;SDS011;11653;50.848;4.584;2023-12-20T03:14:44;16.97;;;5.40;;
22973;SDS011;11653;50.848;4.584;2023-12-20T03:17:10;16.37;;;4.20;;
22973;SDS011;11653;50.848;4.584;2023-12-20T03:19:36;16.10;;;4.07;;
22973;SDS011;11653;50.848;4.584;2023-12-20T03:22:01;15.67;;;4.00;;
22973;SDS011;11653;50.848;4.584;2023-12-20T03:24:27;15.27;;;4.40;;
22973;SDS011;11653;50.848;4.584;2023-12-20T03:26:53;14.63;;;4.30;;
22973;SDS011;11653;50.848;4.584;2023-12-20T03:29:19;13.93;;;4.37;;
22973;SDS011;11653;50.848;4.584;2023-12-20T03:31:44;18.67;;;4.30;;
22973;SDS011;11653;50.848;4.584;2023-12-20T03:34:10;20.50;;;5.60;;
22973;SDS011;11653;50.848;4.584;2023-12-20T03:36:36;17.27;;;5.17;;
22973;SDS011;11653;50.848;4.584;2023-12-20T03:39:02;19.50;;;5.03;;
22973;SDS011;11653;50.848;4.584;2023-12-20T03:41:28;14.70;;;4.40;;
22973;SDS011;11653;50.848;4.584;2023-12-20T03:43:54;27.57;;;5.63;;
22973;SDS011;11653;50.848;4.584;2023-12-20T03:46:19;16.33;;;4.43;;
22973;SDS011;11653;50.848;4.584;2023-12-20T03:48:45;20.20;;;4.93;;
22973;SDS011;11653;50.848;4.584;2023-12-20T03:51:11;18.83;;;5.53;;
22973;SDS011;11653;50.848;4.584;2023-12-20T03:53:37;19.27;;;5.30;;
22973;SDS011;11653;50.848;4.584;2023-12-20T03:56:02;13.13;;;4.57;;
22973;SDS011;11653;50.848;4.584;2023-12-20T03:58:28;20.60;;;5.90;;
22973;SDS011;11653;50.848;4.584;2023-12-20T04:00:54;17.97;;;5.27;;
22973;SDS011;11653;50.848;4.584;2023-12-20T04:03:20;13.67;;;4.80;;
22973;SDS011;11653;50.848;4.584;2023-12-20T04:05:45;16.90;;;5.37;;
22973;SDS011;11653;50.848;4.584;2023-12-20T04:08:11;11.97;;;5.47;;
22973;SDS011;11653;50.848;4.584;2023-12-20T04:10:37;13.20;;;5.33;;
22973;SDS011;11653;50.848;4.584;2023-12-20T04:13:03;16.23;;;5.67;;
22973;SDS011;11653;50.848;4.584;2023-12-20T04:15:29;14.47;;;5.47;;
22973;SDS011;11653;50.848;4.584;2023-12-20T04:17:55;24.57;;;6.80;;
22973;SDS011;11653;50.848;4.584;2023-12-20T04:20:20;17.37;;;5.40;;
22973;SDS011;11653;50.848;4.584;2023-12-20T04:22:46;20.63;;;5.40;;
22973;SDS011;11653;50.848;4.584;2023-12-20T04:25:12;13.27;;;4.20;;
22973;SDS011;11653;50.848;4.584;2023-12-20T04:27:37;13.13;;;4.63;;
22973;SDS011;11653;50.848;4.584;2023-12-20T04:30:03;17.87;;;4.87;;
22973;SDS011;11653;50.848;4.584;2023-12-20T04:32:29;13.63;;;4.77;;
22973;SDS011;11653;50.848;4.584;2023-12-20T04:34:55;19.07;;;4.80;;
22973;SDS011;11653;50.848;4.584;2023-12-20T04:37:20;15.33;;;4.87;;
22973;SDS011;11653;50.848;4.584;2023-12-20T04:39:46;16.17;;;4.80;;
22973;SDS011;11653;50.848;4.584;2023-12-20T04:42:12;12.00;;;4.40;;
22973;SDS011;11653;50.848;4.584;2023-12-20T04:44:38;16.30;;;5.03;;
22973;SDS011;11653;50.848;4.584;2023-12-20T04:47:03;20.23;;;4.77;;
22973;SDS011;11653;50.848;4.584;2023-12-20T04:49:29;12.97;;;4.87;;
22973;SDS011;11653;50.848;4.584;2023-12-20T04:51:55;15.33;;;4.53;;
22973;SDS011;11653;50.848;4.584;2023-12-20T04:54:21;16.07;;;4.50;;
22973;SDS011;11653;50.848;4.584;2023-12-20T04:56:47;17.37;;;4.60;;
22973;SDS011;11653;50.848;4.584;2023-12-20T04:59:12;15.27;;;4.37;;
22973;SDS011;11653;50.848;4.584;2023-12-20T05:01:38;18.47;;;4.90;;
22973;SDS011;11653;50.848;4.584;2023-12-20T05:04:04;15.37;;;4.67;;
22973;SDS011;11653;50.848;4.584;2023-12-20T05:06:29;16.93;;;4.80;;
22973;SDS011;11653;50.848;4.584;2023-12-20T05:08:55;14.70;;;3.63;;
22973;SDS011;11653;50.848;4.584;2023-12-20T05:11:21;15.37;;;4.43;;
22973;SDS011;11653;50.848;4.584;2023-12-20T05:13:46;19.80;;;4.70;;
22973;SDS011;11653;50.848;4.584;2023-12-20T05:16:12;8.53;;;3.87;;
22973;SDS011;11653;50.848;4.584;2023-12-20T05:18:39;20.63;;;4.00;;
22973;SDS011;11653;50.848;4.584;2023-12-20T05:21:05;14.17;;;4.27;;
22973;SDS011;11653;50.848;4.584;2023-12-20T05:23:31;15.77;;;4.47;;
22973;SDS011;11653;50.848;4.584;2023-12-20T05:25:57;17.17;;;4.80;;
22973;SDS011;11653;50.848;4.584;2023-12-20T05:28:24;12.77;;;3.47;;
22973;SDS011;11653;50.848;4.584;2023-12-20T05:30:49;18.93;;;4.17;;
22973;SDS011;11653;50.848;4.584;2023-12-20T05:33:15;19.70;;;4.30;;
22973;SDS011;11653;50.848;4.584;2023-12-20T05:35:41;19.20;;;4.17;;
22973;SDS011;11653;50.848;4.584;2023-12-20T05:38:06;23.07;;;4.80;;
22973;SDS011;11653;50.848;4.584;2023-12-20T05:40:32;12.43;;;3.90;;
22973;SDS011;11653;50.848;4.584;2023-12-20T05:42:58;12.80;;;3.53;;
22973;SDS011;11653;50.848;4.584;2023-12-20T05:45:23;18.67;;;4.40;;
22973;SDS011;11653;50.848;4.584;2023-12-20T05:47:49;18.87;;;3.87;;
22973;SDS011;11653;50.848;4.584;2023-12-20T05:50:14;15.30;;;4.87;;
22973;SDS011;11653;50.848;4.584;2023-12-20T05:52:40;18.17;;;5.23;;
22973;SDS011;11653;50.848;4.584;2023-12-20T05:55:06;11.30;;;4.67;;
22973;SDS011;11653;50.848;4.584;2023-12-20T05:57:32;22.00;;;6.07;;
22973;SDS011;11653;50.848;4.584;2023-12-20T05:59:57;25.37;;;6.87;;
22973;SDS011;11653;50.848;4.584;2023-12-20T06:02:23;19.17;;;6.53;;
22973;SDS011;11653;50.848;4.584;2023-12-20T06:04:48;16.93;;;6.03;;
22973;SDS011;11653;50.848;4.584;2023-12-20T06:07:14;17.30;;;4.40;;
22973;SDS011;11653;50.848;4.584;2023-12-20T06:09:42;20.80;;;6.47;;
22973;SDS011;11653;50.848;4.584;2023-12-20T06:12:08;14.83;;;4.63;;
22973;SDS011;11653;50.848;4.584;2023-12-20T06:14:33;16.87;;;4.77;;
22973;SDS011;11653;50.848;4.584;2023-12-20T06:17:00;21.73;;;4.97;;
22973;SDS011;11653;50.848;4.584;2023-12-20T06:19:26;21.13;;;4.90;;
22973;SDS011;11653;50.848;4.584;2023-12-20T06:21:52;12.87;;;4.23;;
22973;SDS011;11653;50.848;4.584;2023-12-20T06:24:17;11.47;;;3.80;;
22973;SDS011;11653;50.848;4.584;2023-12-20T06:26:43;17.77;;;4.80;;
22973;SDS011;11653;50.848;4.584;2023-12-20T06:29:09;14.00;;;4.40;;
22973;SDS011;11653;50.848;4.584;2023-12-20T06:31:35;25.63;;;5.07;;
22973;SDS011;11653;50.848;4.584;2023-12-20T06:34:00;11.30;;;3.93;;
22973;SDS011;11653;50.848;4.584;2023-12-20T06:36:26;16.53;;;3.83;;
22973;SDS011;11653;50.848;4.584;2023-12-20T06:38:52;11.63;;;4.07;;
22973;SDS011;11653;50.848;4.584;2023-12-20T06:41:18;17.03;;;3.80;;
22973;SDS011;11653;50.848;4.584;2023-12-20T06:43:44;18.13;;;3.97;;
22973;SDS011;11653;50.848;4.584;2023-12-20T06:46:09;13.43;;;3.83;;
22973;SDS011;11653;50.848;4.584;2023-12-20T06:48:35;14.37;;;3.50;;
22973;SDS011;11653;50.848;4.584;2023-12-20T06:51:01;13.00;;;3.30;;
22973;SDS011;11653;50.848;4.584;2023-12-20T06:53:30;10.17;;;2.87;;
22973;SDS011;11653;50.848;4.584;2023-12-20T06:55:55;13.07;;;4.00;;
22973;SDS011;11653;50.848;4.584;2023-12-20T06:58:22;13.13;;;3.80;;
22973;SDS011;11653;50.848;4.584;2023-12-20T07:00:48;12.87;;;4.07;;
22973;SDS011;11653;50.848;4.584;2023-12-20T07:03:14;14.67;;;3.80;;
22973;SDS011;11653;50.848;4.584;2023-12-20T07:05:39;16.70;;;4.13;;
22973;SDS011;11653;50.848;4.584;2023-12-20T07:08:06;18.33;;;3.67;;
22973;SDS011;11653;50.848;4.584;2023-12-20T07:10:31;16.10;;;3.97;;
22973;SDS011;11653;50.848;4.584;2023-12-20T07:12:57;18.60;;;3.73;;
22973;SDS011;11653;50.848;4.584;2023-12-20T07:15:23;18.17;;;4.03;;
22973;SDS011;11653;50.848;4.584;2023-12-20T07:17:49;10.53;;;3.43;;
22973;SDS011;11653;50.848;4.584;2023-12-20T07:20:15;11.83;;;3.77;;
22973;SDS011;11653;50.848;4.584;2023-12-20T07:22:40;12.23;;;3.37;;
22973;SDS011;11653;50.848;4.584;2023-12-20T07:25:06;12.67;;;3.67;;
22973;SDS011;11653;50.848;4.584;2023-12-20T07:27:32;14.00;;;3.37;;
22973;SDS011;11653;50.848;4.584;2023-12-20T07:29:58;16.20;;;3.37;;
22973;SDS011;11653;50.848;4.584;2023-12-20T07:32:24;19.73;;;3.60;;
22973;SDS011;11653;50.848;4.584;2023-12-20T07:34:49;9.07;;;2.93;;
22973;SDS011;11653;50.848;4.584;2023-12-20T07:37:15;16.20;;;3.10;;
22973;SDS011;11653;50.848;4.584;2023-12-20T07:39:41;16.87;;;3.80;;
22973;SDS011;11653;50.848;4.584;2023-12-20T07:42:07;13.80;;;3.43;;
22973;SDS011;11653;50.848;4.584;2023-12-20T07:44:34;15.73;;;3.10;;
22973;SDS011;11653;50.848;4.584;2023-12-20T07:47:00;11.57;;;3.33;;
22973;SDS011;11653;50.848;4.584;2023-12-20T07:49:26;15.13;;;3.20;;
22973;SDS011;11653;50.848;4.584;2023-12-20T07:51:52;18.33;;;4.23;;
22973;SDS011;11653;50.848;4.584;2023-12-20T07:54:18;13.33;;;3.87;;
22973;SDS011;11653;50.848;4.584;2023-12-20T07:56:44;10.70;;;3.50;;
22973;SDS011;11653;50.848;4.584;2023-12-20T07:59:11;13.27;;;3.90;;
22973;SDS011;11653;50.848;4.584;2023-12-20T08:01:37;6.90;;;2.17;;
22973;SDS011;11653;50.848;4.584;2023-12-20T08:04:03;9.83;;;2.57;;
22973;SDS011;11653;50.848;4.584;2023-12-20T08:06:28;12.10;;;3.53;;
22973;SDS011;11653;50.848;4.584;2023-12-20T08:08:54;8.43;;;2.90;;
22973;SDS011;11653;50.848;4.584;2023-12-20T08:11:20;17.47;;;3.00;;
22973;SDS011;11653;50.848;4.584;2023-12-20T08:13:45;10.83;;;2.50;;
22973;SDS011;11653;50.848;4.584;2023-12-20T08:16:11;17.37;;;3.80;;
22973;SDS011;11653;50.848;4.584;2023-12-20T08:18:38;13.30;;;2.30;;
22973;SDS011;11653;50.848;4.584;2023-12-20T08:21:04;14.57;;;3.67;;
22973;SDS011;11653;50.848;4.584;2023-12-20T08:23:32;13.83;;;2.83;;
22973;SDS011;11653;50.848;4.584;2023-12-20T08:25:58;15.33;;;3.10;;
22973;SDS011;11653;50.848;4.584;2023-12-20T08:28:28;9.80;;;2.70;;
22973;SDS011;11653;50.848;4.584;2023-12-20T08:30:54;11.70;;;2.83;;
22973;SDS011;11653;50.848;4.584;2023-12-20T08:33:19;17.73;;;4.10;;
22973;SDS011;11653;50.848;4.584;2023-12-20T08:35:45;13.37;;;3.00;;
22973;SDS011;11653;50.848;4.584;2023-12-20T08:38:11;10.87;;;2.30;;
22973;SDS011;11653;50.848;4.584;2023-12-20T08:40:37;10.13;;;3.10;;
22973;SDS011;11653;50.848;4.584;2023-12-20T08:43:03;11.10;;;3.23;;
22973;SDS011;11653;50.848;4.584;2023-12-20T08:45:28;10.50;;;3.20;;
22973;SDS011;11653;50.848;4.584;2023-12-20T08:47:54;18.43;;;3.07;;
22973;SDS011;11653;50.848;4.584;2023-12-20T08:50:20;8.23;;;2.70;;
22973;SDS011;11653;50.848;4.584;2023-12-20T08:52:45;14.67;;;2.70;;
22973;SDS011;11653;50.848;4.584;2023-12-20T08:55:12;15.10;;;3.03;;
22973;SDS011;11653;50.848;4.584;2023-12-20T08:57:38;8.80;;;2.27;;
22973;SDS011;11653;50.848;4.584;2023-12-20T09:00:03;14.90;;;2.80;;
22973;SDS011;11653;50.848;4.584;2023-12-20T09:02:32;11.33;;;2.67;;
22973;SDS011;11653;50.848;4.584;2023-12-20T09:04:58;15.77;;;3.63;;
22973;SDS011;11653;50.848;4.584;2023-12-20T09:07:24;16.83;;;3.13;;
22973;SDS011;11653;50.848;4.584;2023-12-20T09:09:52;15.40;;;2.90;;
22973;SDS011;11653;50.848;4.584;2023-12-20T09:12:21;11.93;;;2.93;;
22973;SDS011;11653;50.848;4.584;2023-12-20T09:14:47;12.20;;;3.00;;
22973;SDS011;11653;50.848;4.584;2023-12-20T09:17:14;12.83;;;2.13;;
22973;SDS011;11653;50.848;4.584;2023-12-20T09:19:41;8.93;;;3.10;;
22973;SDS011;11653;50.848;4.584;2023-12-20T09:22:08;15.53;;;2.67;;
22973;SDS011;11653;50.848;4.584;2023-12-20T09:24:34;11.53;;;2.47;;
22973;SDS011;11653;50.848;4.584;2023-12-20T09:27:00;10.17;;;2.70;;
22973;SDS011;11653;50.848;4.584;2023-12-20T09:29:26;10.13;;;1.73;;
22973;SDS011;11653;50.848;4.584;2023-12-20T09:31:51;13.67;;;2.80;;
22973;SDS011;11653;50.848;4.584;2023-12-20T09:34:17;12.90;;;3.97;;
22973;SDS011;11653;50.848;4.584;2023-12-20T09:36:43;11.07;;;2.37;;
22973;SDS011;11653;50.848;4.584;2023-12-20T09:39:16;11.43;;;2.63;;
22973;SDS011;11653;50.848;4.584;2023-12-20T09:41:57;16.67;;;3.30;;
22973;SDS011;11653;50.848;4.584;2023-12-20T09:44:27;11.70;;;2.60;;
22973;SDS011;11653;50.848;4.584;2023-12-20T09:46:52;11.83;;;3.20;;
22973;SDS011;11653;50.848;4.584;2023-12-20T09:49:21;15.50;;;2.63;;
22973;SDS011;11653;50.848;4.584;2023-12-20T09:51:47;10.57;;;2.07;;
22973;SDS011;11653;50.848;4.584;2023-12-20T09:54:19;10.03;;;2.70;;
22973;SDS011;11653;50.848;4.584;2023-12-20T09:56:46;14.07;;;3.70;;
22973;SDS011;11653;50.848;4.584;2023-12-20T09:59:13;14.57;;;2.90;;
22973;SDS011;11653;50.848;4.584;2023-12-20T10:01:42;13.40;;;2.73;;
22973;SDS011;11653;50.848;4.584;2023-12-20T10:04:09;10.60;;;2.50;;
22973;SDS011;11653;50.848;4.584;2023-12-20T10:06:46;13.20;;;2.67;;
22973;SDS011;11653;50.848;4.584;2023-12-20T10:09:12;12.97;;;2.90;;
22973;SDS011;11653;50.848;4.584;2023-12-20T10:11:38;15.60;;;3.23;;
22973;SDS011;11653;50.848;4.584;2023-12-20T10:14:08;12.10;;;2.73;;
22973;SDS011;11653;50.848;4.584;2023-12-20T10:16:36;9.53;;;2.20;;
22973;SDS011;11653;50.848;4.584;2023-12-20T10:19:01;12.20;;;2.53;;
22973;SDS011;11653;50.848;4.584;2023-12-20T10:21:27;10.13;;;2.40;;
22973;SDS011;11653;50.848;4.584;2023-12-20T10:23:53;13.97;;;4.53;;
22973;SDS011;11653;50.848;4.584;2023-12-20T10:26:20;9.20;;;2.30;;
22973;SDS011;11653;50.848;4.584;2023-12-20T10:28:50;10.50;;;2.60;;
22973;SDS011;11653;50.848;4.584;2023-12-20T10:31:27;15.03;;;3.13;;
22973;SDS011;11653;50.848;4.584;2023-12-20T10:33:56;14.23;;;3.10;;
22973;SDS011;11653;50.848;4.584;2023-12-20T10:36:23;14.70;;;2.90;;
22973;SDS011;11653;50.848;4.584;2023-12-20T10:38:51;17.13;;;3.53;;
22973;SDS011;11653;50.848;4.584;2023-12-20T10:41:18;13.80;;;3.13;;
22973;SDS011;11653;50.848;4.584;2023-12-20T10:43:53;15.83;;;2.70;;
22973;SDS011;11653;50.848;4.584;2023-12-20T10:46:26;9.93;;;2.37;;
22973;SDS011;11653;50.848;4.584;2023-12-20T10:48:57;14.70;;;3.23;;
22973;SDS011;11653;50.848;4.584;2023-12-20T10:51:23;8.50;;;2.57;;
22973;SDS011;11653;50.848;4.584;2023-12-20T10:53:51;13.23;;;2.87;;
22973;SDS011;11653;50.848;4.584;2023-12-20T10:56:18;15.00;;;2.80;;
22973;SDS011;11653;50.848;4.584;2023-12-20T10:58:46;11.43;;;3.53;;
22973;SDS011;11653;50.848;4.584;2023-12-20T11:01:14;12.13;;;3.20;;
22973;SDS011;11653;50.848;4.584;2023-12-20T11:03:51;11.37;;;3.27;;
22973;SDS011;11653;50.848;4.584;2023-12-20T11:06:29;12.93;;;2.70;;
22973;SDS011;11653;50.848;4.584;2023-12-20T11:17:13;15.30;;;2.70;;
22973;SDS011;11653;50.848;4.584;2023-12-20T11:22:24;23.80;;;10.00;;
22973;SDS011;11653;50.848;4.584;2023-12-20T11:24:51;19.17;;;3.30;;
22973;SDS011;11653;50.848;4.584;2023-12-20T11:27:18;11.27;;;2.80;;
22973;SDS011;11653;50.848;4.584;2023-12-20T11:29:51;9.47;;;2.20;;
22973;SDS011;11653;50.848;4.584;2023-12-20T11:34:50;14.33;;;2.90;;
22973;SDS011;11653;50.848;4.584;2023-12-20T11:37:19;12.97;;;2.97;;
22973;SDS011;11653;50.848;4.584;2023-12-20T11:39:45;12.60;;;2.80;;
22973;SDS011;11653;50.848;4.584;2023-12-20T11:42:19;15.50;;;3.07;;
22973;SDS011;11653;50.848;4.584;2023-12-20T11:44:45;16.87;;;3.30;;
22973;SDS011;11653;50.848;4.584;2023-12-20T11:47:12;16.23;;;3.90;;
22973;SDS011;11653;50.848;4.584;2023-12-20T11:49:38;10.00;;;2.60;;
22973;SDS011;11653;50.848;4.584;2023-12-20T11:52:05;13.00;;;2.67;;
22973;SDS011;11653;50.848;4.584;2023-12-20T11:54:31;12.67;;;3.17;;
22973;SDS011;11653;50.848;4.584;2023-12-20T11:56:57;16.27;;;3.00;;
22973;SDS011;11653;50.848;4.584;2023-12-20T11:59:23;14.77;;;3.33;;
22973;SDS011;11653;50.848;4.584;2023-12-20T12:01:49;15.53;;;3.60;;
22973;SDS011;11653;50.848;4.584;2023-12-20T12:04:15;13.53;;;2.63;;
22973;SDS011;11653;50.848;4.584;2023-12-20T12:06:42;11.37;;;2.67;;
22973;SDS011;11653;50.848;4.584;2023-12-20T12:09:10;13.67;;;4.37;;
22973;SDS011;11653;50.848;4.584;2023-12-20T12:11:35;11.07;;;3.00;;
22973;SDS011;11653;50.848;4.584;2023-12-20T12:14:01;16.10;;;3.33;;
22973;SDS011;11653;50.848;4.584;2023-12-20T12:16:27;17.23;;;4.07;;
22973;SDS011;11653;50.848;4.584;2023-12-20T12:18:56;15.43;;;3.77;;
22973;SDS011;11653;50.848;4.584;2023-12-20T12:21:22;13.73;;;3.30;;
22973;SDS011;11653;50.848;4.584;2023-12-20T12:23:48;7.40;;;2.77;;
22973;SDS011;11653;50.848;4.584;2023-12-20T12:26:14;15.30;;;3.60;;
22973;SDS011;11653;50.848;4.584;2023-12-20T12:28:40;14.17;;;3.60;;
22973;SDS011;11653;50.848;4.584;2023-12-20T12:31:07;14.70;;;3.40;;
22973;SDS011;11653;50.848;4.584;2023-12-20T12:33:33;18.40;;;3.50;;
22973;SDS011;11653;50.848;4.584;2023-12-20T12:35:59;12.27;;;3.33;;
22973;SDS011;11653;50.848;4.584;2023-12-20T12:38:26;17.33;;;3.33;;
22973;SDS011;11653;50.848;4.584;2023-12-20T12:40:52;13.20;;;2.60;;
22973;SDS011;11653;50.848;4.584;2023-12-20T12:43:18;16.33;;;3.40;;
22973;SDS011;11653;50.848;4.584;2023-12-20T12:45:44;16.37;;;2.97;;
22973;SDS011;11653;50.848;4.584;2023-12-20T12:48:10;18.63;;;2.93;;
22973;SDS011;11653;50.848;4.584;2023-12-20T12:50:36;17.53;;;3.63;;
22973;SDS011;11653;50.848;4.584;2023-12-20T12:53:01;12.50;;;3.40;;
22973;SDS011;11653;50.848;4.584;2023-12-20T12:55:27;14.20;;;3.63;;
22973;SDS011;11653;50.848;4.584;2023-12-20T12:57:53;13.07;;;3.10;;
22973;SDS011;11653;50.848;4.584;2023-12-20T13:00:19;15.97;;;4.20;;
22973;SDS011;11653;50.848;4.584;2023-12-20T13:02:45;16.33;;;3.20;;
22973;SDS011;11653;50.848;4.584;2023-12-20T13:05:10;13.40;;;3.10;;
22973;SDS011;11653;50.848;4.584;2023-12-20T13:07:36;13.10;;;3.20;;
22973;SDS011;11653;50.848;4.584;2023-12-20T13:10:02;19.83;;;5.73;;
22973;SDS011;11653;50.848;4.584;2023-12-20T13:12:29;13.60;;;3.73;;
22973;SDS011;11653;50.848;4.584;2023-12-20T13:14:55;21.00;;;3.53;;
22973;SDS011;11653;50.848;4.584;2023-12-20T13:17:20;19.60;;;5.07;;
22973;SDS011;11653;50.848;4.584;2023-12-20T13:19:46;11.27;;;3.90;;
22973;SDS011;11653;50.848;4.584;2023-12-20T13:22:12;17.07;;;4.80;;
22973;SDS011;11653;50.848;4.584;2023-12-20T13:24:37;18.90;;;3.33;;
22973;SDS011;11653;50.848;4.584;2023-12-20T13:27:03;18.90;;;3.80;;
22973;SDS011;11653;50.848;4.584;2023-12-20T13:29:29;8.13;;;2.93;;
22973;SDS011;11653;50.848;4.584;2023-12-20T13:31:54;17.97;;;3.30;;
22973;SDS011;11653;50.848;4.584;2023-12-20T13:34:20;10.90;;;3.57;;
22973;SDS011;11653;50.848;4.584;2023-12-20T13:36:46;10.07;;;3.23;;
22973;SDS011;11653;50.848;4.584;2023-12-20T13:39:13;14.67;;;4.77;;
22973;SDS011;11653;50.848;4.584;2023-12-20T13:41:38;15.37;;;3.47;;
22973;SDS011;11653;50.848;4.584;2023-12-20T13:44:04;16.13;;;3.27;;
22973;SDS011;11653;50.848;4.584;2023-12-20T13:46:30;15.10;;;3.53;;
22973;SDS011;11653;50.848;4.584;2023-12-20T13:48:56;13.47;;;3.73;;
22973;SDS011;11653;50.848;4.584;2023-12-20T13:51:22;17.13;;;3.47;;
22973;SDS011;11653;50.848;4.584;2023-12-20T13:53:48;13.13;;;3.17;;
22973;SDS011;11653;50.848;4.584;2023-12-20T13:56:14;8.97;;;2.73;;
22973;SDS011;11653;50.848;4.584;2023-12-20T13:58:40;14.30;;;3.03;;
22973;SDS011;11653;50.848;4.584;2023-12-20T14:01:07;13.57;;;3.07;;
22973;SDS011;11653;50.848;4.584;2023-12-20T14:03:33;11.23;;;2.93;;
22973;SDS011;11653;50.848;4.584;2023-12-20T14:05:59;11.67;;;2.70;;
22973;SDS011;11653;50.848;4.584;2023-12-20T14:08:26;15.43;;;3.10;;
22973;SDS011;11653;50.848;4.584;2023-12-20T14:10:52;10.37;;;2.80;;
22973;SDS011;11653;50.848;4.584;2023-12-20T14:13:18;13.40;;;3.13;;
22973;SDS011;11653;50.848;4.584;2023-12-20T14:15:44;14.57;;;3.73;;
22973;SDS011;11653;50.848;4.584;2023-12-20T14:18:09;16.87;;;3.00;;
22973;SDS011;11653;50.848;4.584;2023-12-20T14:20:37;16.67;;;3.63;;
22973;SDS011;11653;50.848;4.584;2023-12-20T14:23:04;13.57;;;2.83;;
22973;SDS011;11653;50.848;4.584;2023-12-20T14:25:30;14.97;;;3.20;;
22973;SDS011;11653;50.848;4.584;2023-12-20T14:27:58;13.43;;;3.23;;
22973;SDS011;11653;50.848;4.584;2023-12-20T14:30:24;13.00;;;2.97;;
22973;SDS011;11653;50.848;4.584;2023-12-20T14:32:50;13.90;;;2.90;;
22973;SDS011;11653;50.848;4.584;2023-12-20T14:35:16;10.47;;;2.47;;
22973;SDS011;11653;50.848;4.584;2023-12-20T14:37:41;18.20;;;4.00;;
22973;SDS011;11653;50.848;4.584;2023-12-20T14:40:07;16.63;;;3.17;;
22973;SDS011;11653;50.848;4.584;2023-12-20T14:42:40;13.13;;;2.97;;
22973;SDS011;11653;50.848;4.584;2023-12-20T14:45:07;17.93;;;3.67;;